Time;durP1;ratioP1;P1;durP2;ratioP2;P2;SDS_P1;SDS_P2;PMS_P1;PMS_P2;Temp;Humidity;BMP_temperature;BMP_pressure;BME280_temperature;BME280_humidity;BME280_pressure;Samples;Min_cycle;Max_cycle;Signal;HPM_P1;HPM_P2
2023/07/23 00:00:15;;;;;;;0.70;0.70;;;;;;;18.70;63.46;99606.34;5093926;28;20044;-58
2023/07/23 00:02:46;;;;;;;0.98;0.68;;;;;;;18.63;63.57;99599.72;5094189;28;20080;-58
2023/07/23 00:05:17;;;;;;;0.60;0.60;;;;;;;18.52;63.92;99606.97;5093956;28;20044;-58
2023/07/23 00:07:46;;;;;;;0.63;0.63;;;;;;;18.52;64.06;99599.22;5094211;28;20150;-58
2023/07/23 00:10:14;;;;;;;0.60;0.60;;;;;;;18.51;64.00;99605.28;5093830;28;20051;-58
2023/07/23 00:12:43;;;;;;;1.07;0.90;;;;;;;18.39;64.37;99597.94;5093736;28;20067;-58
2023/07/23 00:15:12;;;;;;;0.50;0.50;;;;;;;18.25;64.82;99597.53;5094105;28;20277;-58
2023/07/23 00:17:41;;;;;;;0.52;0.52;;;;;;;18.18;65.22;99595.22;5093740;28;20287;-58
2023/07/23 00:20:12;;;;;;;0.50;0.50;;;;;;;18.15;65.39;99596.16;5094045;28;20047;-58
2023/07/23 00:22:42;;;;;;;0.68;0.68;;;;;;;18.15;65.45;99593.56;5094049;28;20046;-58
2023/07/23 00:25:11;;;;;;;1.00;0.85;;;;;;;18.02;65.70;99603.44;5094038;28;20071;-58
2023/07/23 00:27:40;;;;;;;1.90;0.93;;;;;;;17.88;66.09;99604.78;5093690;28;20123;-58
2023/07/23 00:30:10;;;;;;;0.60;0.60;;;;;;;17.91;66.25;99607.28;5093594;28;20486;-58
2023/07/23 00:32:40;;;;;;;1.20;1.10;;;;;;;17.93;66.09;99613.22;5093928;28;20063;-58
2023/07/23 00:35:09;;;;;;;0.40;0.40;;;;;;;17.97;66.09;99617.44;5093470;28;20119;-58
2023/07/23 00:37:38;;;;;;;;;;;;;;;17.96;66.08;99611.41;5094273;28;20044;-58
2023/07/23 00:40:10;;;;;;;1.85;0.60;;;;;;;17.89;66.03;99609.06;5093422;28;19920;-58
2023/07/23 00:42:39;;;;;;;0.60;0.60;;;;;;;17.76;66.33;99605.16;5092794;28;20046;-58
2023/07/23 00:45:08;;;;;;;1.07;0.97;;;;;;;17.66;66.50;99611.53;5093431;28;20044;-58
2023/07/23 00:47:37;;;;;;;0.38;0.38;;;;;;;17.55;66.76;99603.25;5093761;28;20269;-58
2023/07/23 00:50:08;;;;;;;0.63;0.63;;;;;;;17.28;67.44;99610.88;5093477;28;20102;-58
2023/07/23 00:52:37;;;;;;;0.60;0.60;;;;;;;17.20;67.91;99602.50;5092570;28;20394;-58
2023/07/23 00:55:09;;;;;;;2.00;1.30;;;;;;;17.13;68.06;99606.16;5093303;28;20058;-58
2023/07/23 00:57:38;;;;;;;0.50;0.50;;;;;;;16.94;68.54;99594.66;5093448;28;20101;-58
2023/07/23 01:00:09;;;;;;;1.10;1.00;;;;;;;17.01;68.92;99601.34;5094483;28;20050;-58
2023/07/23 01:02:38;;;;;;;0.55;0.55;;;;;;;17.25;68.46;99592.06;5096593;28;20441;-58
2023/07/23 01:05:08;;;;;;;0.50;0.50;;;;;;;17.39;68.28;99588.19;5096346;28;20047;-58
2023/07/23 01:07:38;;;;;;;1.05;0.90;;;;;;;17.51;67.86;99583.56;5096343;28;20337;-58
2023/07/23 01:10:09;;;;;;;;;;;;;;;17.43;67.90;99584.63;5097905;28;20131;-58
2023/07/23 01:12:38;;;;;;;0.65;0.65;;;;;;;17.28;68.20;99582.50;5097501;28;19920;-58
2023/07/23 01:15:09;;;;;;;0.57;0.57;;;;;;;17.22;68.56;99594.72;5095962;28;20071;-58
2023/07/23 01:17:40;;;;;;;1.48;0.70;;;;;;;17.19;68.37;99580.19;5095924;28;20040;-57
2023/07/23 01:20:09;;;;;;;0.70;0.70;;;;;;;17.18;68.33;99588.81;5097616;28;20040;-60
2023/07/23 01:22:40;;;;;;;1.08;0.98;;;;;;;17.28;68.29;99582.50;5097336;28;20072;-60
2023/07/23 01:25:09;;;;;;;0.60;0.60;;;;;;;17.41;68.07;99581.25;5095741;28;20064;-60
2023/07/23 01:27:38;;;;;;;0.60;0.60;;;;;;;17.50;67.07;99589.59;5096853;28;20054;-60
2023/07/23 01:30:10;;;;;;;1.17;1.07;;;;;;;17.54;66.84;99578.34;5097116;28;20043;-60
2023/07/23 01:32:40;;;;;;;0.57;0.57;;;;;;;17.44;66.88;99582.91;5095675;28;20077;-60
2023/07/23 01:35:14;;;;;;;1.38;0.80;;;;;;;17.42;66.97;99582.94;5096901;28;20052;-58
2023/07/23 01:37:47;;;;;;;1.27;0.98;;;;;;;17.42;66.86;99585.50;5095916;28;20094;-60
2023/07/23 01:40:17;;;;;;;0.40;0.40;;;;;;;17.35;66.72;99585.72;5096573;28;20379;-60
2023/07/23 01:42:46;;;;;;;1.25;0.95;;;;;;;17.20;66.84;99589.59;5096627;28;20062;-60
2023/07/23 01:45:15;;;;;;;6.13;1.58;;;;;;;17.12;67.32;99591.56;5095369;28;20115;-60
2023/07/23 01:47:44;;;;;;;0.50;0.50;;;;;;;17.20;66.90;99588.78;5096581;28;20028;-60
2023/07/23 01:50:13;;;;;;;0.75;0.70;;;;;;;17.25;66.42;99595.47;5096962;28;20265;-59
2023/07/23 01:52:42;;;;;;;0.50;0.50;;;;;;;17.21;66.05;99600.78;5096378;28;20044;-60
2023/07/23 01:55:12;;;;;;;0.50;0.50;;;;;;;17.13;66.12;99595.81;5096595;28;20051;-60
2023/07/23 01:57:41;;;;;;;2.03;1.23;;;;;;;17.10;66.23;99595.94;5096317;28;20046;-60
2023/07/23 02:00:11;;;;;;;0.60;0.60;;;;;;;17.11;66.09;99597.59;5095107;28;20496;-60
2023/07/23 02:02:40;;;;;;;0.75;0.70;;;;;;;16.94;66.09;99599.81;5096486;28;20055;-60
2023/07/23 02:05:10;;;;;;;0.70;0.70;;;;;;;16.81;66.15;99601.06;5095008;28;20043;-60
2023/07/23 02:07:39;;;;;;;1.42;1.23;;;;;;;16.88;65.89;99604.31;5096360;28;20044;-59
2023/07/23 02:10:08;;;;;;;0.77;0.67;;;;;;;16.94;65.91;99599.81;5094803;28;20044;-60
2023/07/23 02:12:39;;;;;;;0.70;0.70;;;;;;;17.02;65.76;99603.03;5096046;28;20405;-59
2023/07/23 02:15:10;;;;;;;2.35;0.98;;;;;;;17.07;65.73;99603.75;5096382;28;20040;-59
2023/07/23 02:17:39;;;;;;;0.50;0.50;;;;;;;17.12;65.78;99607.06;5096512;28;20490;-59
2023/07/23 02:20:09;;;;;;;0.47;0.47;;;;;;;17.08;65.45;99607.19;5094538;28;20039;-59
2023/07/23 02:22:38;;;;;;;0.40;0.40;;;;;;;16.96;65.65;99612.69;5095900;28;20097;-59
2023/07/23 02:25:07;;;;;;;0.70;0.70;;;;;;;17.01;65.60;99609.06;5096065;28;20036;-59
2023/07/23 02:27:38;;;;;;;0.70;0.70;;;;;;;16.99;65.66;99613.44;5095616;28;20048;-59
2023/07/23 02:30:08;;;;;;;0.52;0.50;;;;;;;16.87;66.24;99624.06;5095995;28;20511;-59
2023/07/23 02:32:37;;;;;;;1.00;0.82;;;;;;;16.93;66.12;99621.34;5095695;28;20127;-59
2023/07/23 02:35:07;;;;;;;0.63;0.63;;;;;;;16.89;66.32;99629.22;5095607;28;20105;-59
2023/07/23 02:37:36;;;;;;;0.80;0.80;;;;;;;16.61;66.93;99631.66;5094596;28;20074;-60
2023/07/23 02:40:07;;;;;;;0.52;0.52;;;;;;;16.40;67.72;99629.59;5096255;28;20474;-59
2023/07/23 02:42:36;;;;;;;0.95;0.90;;;;;;;16.38;67.82;99634.81;5095994;28;20047;-59
2023/07/23 02:45:08;;;;;;;0.60;0.60;;;;;;;16.17;68.08;99629.31;5094252;28;20119;-59
2023/07/23 02:47:36;;;;;;;0.90;0.90;;;;;;;16.08;69.02;99630.38;5094411;28;20048;-59
2023/07/23 02:50:07;;;;;;;0.60;0.60;;;;;;;15.96;69.34;99626.38;5094031;28;20054;-59
2023/07/23 02:52:35;;;;;;;0.65;0.65;;;;;;;16.03;69.40;99633.06;5095303;28;20101;-59
2023/07/23 02:55:05;;;;;;;0.40;0.40;;;;;;;15.89;69.67;99640.25;5094011;28;20106;-59
2023/07/23 02:57:34;;;;;;;0.60;0.60;;;;;;;15.80;70.00;99640.47;5095195;28;20048;-59
2023/07/23 03:00:04;;;;;;;1.30;0.67;;;;;;;15.88;69.80;99633.41;5094376;28;20039;-59
2023/07/23 03:02:35;;;;;;;0.55;0.55;;;;;;;15.86;69.80;99631.78;5094163;28;20054;-60
2023/07/23 03:05:05;;;;;;;0.98;0.85;;;;;;;15.83;69.95;99635.28;5093814;28;20036;-59
2023/07/23 03:07:35;;;;;;;0.75;0.75;;;;;;;15.82;70.15;99632.72;5094985;28;20040;-59
2023/07/23 03:10:05;;;;;;;1.08;0.95;;;;;;;15.97;70.19;99638.38;5095145;28;20117;-59
2023/07/23 03:12:34;;;;;;;2.13;1.45;;;;;;;15.95;69.56;99632.41;5094848;28;20497;-59
2023/07/23 03:15:03;;;;;;;0.90;0.90;;;;;;;15.95;70.10;99629.00;5094874;28;20058;-59
2023/07/23 03:17:33;;;;;;;0.68;0.68;;;;;;;15.99;69.55;99626.31;5095173;28;20067;-59
2023/07/23 03:20:04;;;;;;;0.82;0.60;;;;;;;16.17;69.70;99634.47;5093690;28;20105;-59
2023/07/23 03:22:33;;;;;;;0.70;0.70;;;;;;;16.23;69.30;99631.75;5094109;28;20567;-59
2023/07/23 03:25:04;;;;;;;1.23;1.13;;;;;;;16.30;68.92;99628.13;5095085;28;20048;-59
2023/07/23 03:27:34;;;;;;;0.50;0.50;;;;;;;16.34;68.67;99632.34;5093466;28;20056;-60
2023/07/23 03:30:05;;;;;;;0.50;0.50;;;;;;;16.32;68.65;99634.09;5094466;28;20052;-59
2023/07/23 03:32:34;;;;;;;0.50;0.50;;;;;;;16.27;68.75;99636.78;5094824;28;20040;-59
2023/07/23 03:35:06;;;;;;;0.75;0.75;;;;;;;16.35;68.89;99640.03;5094710;28;20039;-59
2023/07/23 03:37:35;;;;;;;0.73;0.73;;;;;;;16.41;68.35;99646.75;5094477;28;20054;-59
2023/07/23 03:40:04;;;;;;;0.63;0.63;;;;;;;16.41;68.18;99644.19;5094484;28;20060;-59
2023/07/23 03:42:33;;;;;;;1.13;1.02;;;;;;;16.45;68.10;99646.63;5094231;28;20044;-59
2023/07/23 03:45:02;;;;;;;0.57;0.57;;;;;;;16.44;68.02;99646.66;5093321;28;20090;-59
2023/07/23 03:47:31;;;;;;;0.95;0.70;;;;;;;16.44;68.02;99649.25;5093082;28;20065;-59
2023/07/23 03:50:00;;;;;;;1.00;0.70;;;;;;;16.45;67.92;99643.22;5092859;28;20090;-59
2023/07/23 03:52:31;;;;;;;0.70;0.70;;;;;;;16.48;67.72;99640.56;5094532;28;20162;-59
2023/07/23 03:55:00;;;;;;;0.63;0.63;;;;;;;16.49;67.60;99643.09;5093002;28;20268;-59
2023/07/23 03:57:28;;;;;;;0.40;0.40;;;;;;;16.42;67.88;99651.00;5094098;28;20111;-59
2023/07/23 03:59:57;;;;;;;0.60;0.60;;;;;;;16.28;68.37;99648.78;5094311;28;20040;-59
2023/07/23 04:02:26;;;;;;;0.93;0.90;;;;;;;16.20;69.06;99639.53;5093908;28;20040;-60
2023/07/23 04:04:55;;;;;;;2.28;1.13;;;;;;;16.16;69.30;99637.91;5094356;28;20118;-59
2023/07/23 04:07:24;;;;;;;0.50;0.50;;;;;;;16.15;69.67;99641.41;5094473;28;20040;-59
2023/07/23 04:09:55;;;;;;;0.90;0.65;;;;;;;16.10;69.78;99647.47;5094177;28;20056;-59
2023/07/23 04:12:23;;;;;;;0.68;0.68;;;;;;;16.14;70.20;99644.84;5094329;28;20109;-59
2023/07/23 04:14:53;;;;;;;0.63;0.63;;;;;;;16.21;70.16;99654.13;5093802;28;20524;-59
2023/07/23 04:17:22;;;;;;;0.40;0.40;;;;;;;16.28;70.15;99658.22;5094066;28;20446;-59
2023/07/23 04:19:51;;;;;;;1.00;0.93;;;;;;;16.38;70.06;99665.72;5093764;28;20044;-59
2023/07/23 04:22:20;;;;;;;0.30;0.30;;;;;;;16.56;69.37;99669.56;5094024;28;20284;-60
2023/07/23 04:24:49;;;;;;;0.83;0.63;;;;;;;16.58;68.81;99670.41;5093665;28;20048;-59
2023/07/23 04:27:19;;;;;;;0.63;0.63;;;;;;;16.69;68.44;99673.56;5093732;28;20040;-59
2023/07/23 04:29:48;;;;;;;0.70;0.70;;;;;;;16.79;68.07;99664.69;5093665;28;20101;-59
2023/07/23 04:32:17;;;;;;;0.87;0.77;;;;;;;16.84;67.84;99667.16;5092441;28;20071;-59
2023/07/23 04:34:47;;;;;;;0.80;0.80;;;;;;;16.95;67.81;99662.53;5095341;28;20043;-59
2023/07/23 04:37:15;;;;;;;0.50;0.50;;;;;;;17.03;67.52;99671.78;5097871;28;20089;-59
2023/07/23 04:39:44;;;;;;;0.60;0.60;;;;;;;17.12;67.58;99666.38;5098160;28;20039;-59
2023/07/23 04:42:14;;;;;;;0.77;0.75;;;;;;;17.22;67.28;99667.81;5097557;28;20048;-60
2023/07/23 04:44:44;;;;;;;0.73;0.73;;;;;;;17.34;67.32;99662.31;5098229;28;20032;-59
2023/07/23 04:47:13;;;;;;;0.70;0.70;;;;;;;17.42;67.66;99670.66;5097749;28;20447;-60
2023/07/23 04:49:42;;;;;;;0.80;0.80;;;;;;;17.46;67.45;99665.41;5097669;28;20419;-59
2023/07/23 04:52:12;;;;;;;1.13;0.97;;;;;;;17.53;67.47;99672.13;5097474;28;20781;-59
2023/07/23 04:54:41;;;;;;;1.42;0.93;;;;;;;17.54;67.38;99677.22;5097581;28;20044;-59
2023/07/23 04:57:10;;;;;;;0.47;0.47;;;;;;;17.68;67.22;99676.84;5098047;28;20385;-59
2023/07/23 04:59:39;;;;;;;0.73;0.73;;;;;;;17.82;67.09;99672.13;5097511;28;20119;-59
2023/07/23 05:02:09;;;;;;;0.40;0.40;;;;;;;17.86;67.33;99671.13;5097416;28;20032;-59
2023/07/23 05:04:38;;;;;;;0.60;0.60;;;;;;;18.00;67.31;99668.97;5097538;28;20044;-60
2023/07/23 05:07:07;;;;;;;0.87;0.80;;;;;;;18.17;66.69;99677.03;5097283;28;20044;-59
2023/07/23 05:09:35;;;;;;;0.73;0.67;;;;;;;18.34;66.00;99674.75;5097254;28;20070;-60
2023/07/23 05:12:05;;;;;;;0.80;0.63;;;;;;;18.52;65.52;99679.34;5097419;28;20390;-60
2023/07/23 05:14:35;;;;;;;0.60;0.50;;;;;;;18.62;65.10;99685.91;5097459;28;20083;-60
2023/07/23 05:17:04;;;;;;;;;;;;;;;18.78;64.67;99680.22;5098595;28;20434;-60
2023/07/23 05:19:37;;;;;;;0.75;0.60;;;;;;;18.91;64.09;99686.69;5097309;28;19927;-60
2023/07/23 05:22:06;;;;;;;0.52;0.52;;;;;;;19.00;63.90;99681.19;5096977;28;20040;-60
2023/07/23 05:24:35;;;;;;;0.60;0.60;;;;;;;19.04;63.71;99682.75;5097115;28;20052;-60
2023/07/23 05:27:05;;;;;;;0.60;0.60;;;;;;;19.12;63.41;99675.59;5097101;28;20043;-60
2023/07/23 05:29:33;;;;;;;0.40;0.40;;;;;;;19.17;62.88;99676.28;5097058;28;20273;-60
2023/07/23 05:32:02;;;;;;;0.63;0.63;;;;;;;19.23;62.78;99673.44;5096761;28;20131;-60
2023/07/23 05:34:31;;;;;;;0.90;0.90;;;;;;;19.24;62.40;99680.31;5095764;28;20447;-60
2023/07/23 05:37:02;;;;;;;0.70;0.70;;;;;;;19.25;62.45;99671.66;5097047;28;20762;-60
2023/07/23 05:39:31;;;;;;;1.20;1.10;;;;;;;19.33;62.41;99685.16;5097279;28;20285;-60
2023/07/23 05:42:00;;;;;;;0.57;0.57;;;;;;;19.44;62.37;99682.19;5096524;28;20043;-60
2023/07/23 05:44:29;;;;;;;0.97;0.70;;;;;;;19.55;62.24;99686.09;5095684;28;20046;-60
2023/07/23 05:46:58;;;;;;;0.70;0.70;;;;;;;19.70;62.12;99674.34;5096960;28;20288;-60
2023/07/23 05:49:27;;;;;;;4.53;0.68;;;;;;;19.85;62.00;99690.13;5096756;28;20608;-60
2023/07/23 05:51:57;;;;;;;0.73;0.73;;;;;;;19.87;62.00;99682.28;5096492;28;20047;-60
2023/07/23 05:54:28;;;;;;;0.60;0.60;;;;;;;19.92;61.78;99683.81;5096590;28;20456;-61
2023/07/23 05:56:57;;;;;;;5.97;1.30;;;;;;;19.94;61.44;99679.41;5096366;28;20062;-60
2023/07/23 05:59:26;;;;;;;0.88;0.88;;;;;;;19.96;61.41;99687.94;5096275;28;20117;-60
2023/07/23 06:01:55;;;;;;;0.95;0.80;;;;;;;20.02;61.61;99679.97;5097012;28;20044;-60
2023/07/23 06:04:23;;;;;;;1.07;0.70;;;;;;;20.12;61.20;99682.19;5096190;28;20051;-58
2023/07/23 06:06:52;;;;;;;0.70;0.65;;;;;;;20.21;61.21;99677.47;5096494;28;20028;-58
2023/07/23 06:09:21;;;;;;;0.70;0.65;;;;;;;20.31;60.86;99678.84;5096031;28;20089;-58
2023/07/23 06:11:53;;;;;;;0.70;0.70;;;;;;;20.42;60.93;99681.00;5096636;28;20543;-58
2023/07/23 06:14:22;;;;;;;1.10;1.00;;;;;;;20.58;60.92;99674.28;5096192;28;20319;-58
2023/07/23 06:16:51;;;;;;;0.52;0.52;;;;;;;20.70;60.55;99678.94;5096046;28;20144;-58
2023/07/23 06:19:20;;;;;;;0.60;0.60;;;;;;;20.80;60.53;99671.63;5096022;28;20036;-58
2023/07/23 06:21:49;;;;;;;1.03;0.93;;;;;;;20.93;60.56;99667.56;5095861;28;20276;-58
2023/07/23 06:24:18;;;;;;;1.53;1.43;;;;;;;21.04;59.94;99670.56;5095798;28;20423;-58
2023/07/23 06:26:47;;;;;;;0.60;0.60;;;;;;;21.07;59.67;99666.09;5096293;28;20284;-58
2023/07/23 06:29:17;;;;;;;0.60;0.60;;;;;;;21.28;59.74;99662.56;5095905;28;20330;-58
2023/07/23 06:31:46;;;;;;;0.73;0.73;;;;;;;21.45;59.31;99655.78;5095615;28;20048;-59
2023/07/23 06:34:14;;;;;;;0.50;0.50;;;;;;;21.51;58.75;99661.53;5096246;28;20464;-58
2023/07/23 06:36:45;;;;;;;1.67;1.20;;;;;;;21.65;58.37;99655.69;5095537;28;20040;-58
2023/07/23 06:39:15;;;;;;;0.50;0.50;;;;;;;21.61;58.53;99661.97;5095527;28;20056;-58
2023/07/23 06:41:43;;;;;;;0.47;0.47;;;;;;;21.63;58.56;99660.97;5095502;28;20375;-58
2023/07/23 06:44:12;;;;;;;0.63;0.63;;;;;;;21.76;58.28;99653.47;5095536;28;20070;-58
2023/07/23 06:46:42;;;;;;;0.67;0.67;;;;;;;21.86;57.85;99657.31;5095450;28;20048;-58
2023/07/23 06:49:13;;;;;;;0.95;0.77;;;;;;;22.01;57.44;99661.81;5095583;28;20287;-58
2023/07/23 06:51:42;;;;;;;0.73;0.73;;;;;;;22.17;57.08;99662.75;5095228;28;20044;-58
2023/07/23 06:54:10;;;;;;;1.57;1.33;;;;;;;22.35;57.11;99654.06;5095183;28;20047;-58
2023/07/23 06:56:39;;;;;;;0.70;0.70;;;;;;;22.35;56.85;99659.28;5094529;28;20090;-59
2023/07/23 06:59:08;;;;;;;0.67;0.67;;;;;;;22.39;56.87;99668.59;5095296;28;20067;-59
2023/07/23 07:01:37;;;;;;;2.17;0.80;;;;;;;22.46;56.74;99664.78;5095319;28;20097;-59
2023/07/23 07:04:07;;;;;;;1.40;0.90;;;;;;;22.60;56.21;99670.13;5095102;28;20289;-58
2023/07/23 07:06:36;;;;;;;0.90;0.88;;;;;;;22.76;56.33;99672.00;5094927;28;20040;-59
2023/07/23 07:09:04;;;;;;;0.50;0.50;;;;;;;22.89;56.39;99662.69;5094913;28;20043;-59
2023/07/23 07:11:34;;;;;;;0.60;0.60;;;;;;;22.93;56.32;99658.97;5093608;28;20064;-59
2023/07/23 07:14:03;;;;;;;1.10;1.00;;;;;;;23.08;56.32;99653.00;5108786;28;20051;-59
2023/07/23 07:16:32;;;;;;;0.68;0.68;;;;;;;23.16;55.81;99650.81;5115336;28;20641;-59
2023/07/23 07:19:01;;;;;;;0.95;0.90;;;;;;;23.30;55.25;99649.16;5114773;28;20058;-59
2023/07/23 07:21:34;;;;;;;0.50;0.50;;;;;;;23.41;55.08;99655.59;5114983;28;20063;-59
2023/07/23 07:24:04;;;;;;;0.82;0.70;;;;;;;23.41;55.03;99645.19;5115196;28;20044;-59
2023/07/23 07:26:34;;;;;;;;;;;;;;;23.54;55.12;99647.03;5115800;28;20400;-59
2023/07/23 07:29:03;;;;;;;1.95;1.17;;;;;;;23.70;54.47;99641.84;5113693;28;19927;-59
2023/07/23 07:31:32;;;;;;;0.60;0.60;;;;;;;23.80;53.77;99649.06;5115069;28;20195;-59
2023/07/23 07:34:01;;;;;;;1.13;0.85;;;;;;;23.79;53.53;99650.00;5115226;28;20489;-59
2023/07/23 07:36:32;;;;;;;0.52;0.52;;;;;;;23.69;54.06;99643.59;5114629;28;20126;-59
2023/07/23 07:39:00;;;;;;;2.90;1.50;;;;;;;23.62;53.93;99644.03;5115111;28;20495;-59
2023/07/23 07:41:29;;;;;;;1.10;0.82;;;;;;;23.82;53.70;99642.00;5114412;28;20059;-59
2023/07/23 07:43:59;;;;;;;1.70;1.05;;;;;;;23.95;53.29;99636.94;5114584;28;20032;-59
2023/07/23 07:46:28;;;;;;;2.80;0.75;;;;;;;24.12;53.01;99639.47;5114814;28;20036;-59
2023/07/23 07:48:59;;;;;;;0.65;0.65;;;;;;;24.24;52.75;99640.53;5114310;28;20501;-59
2023/07/23 07:51:28;;;;;;;0.50;0.50;;;;;;;24.23;52.80;99636.25;5114546;28;20523;-59
2023/07/23 07:53:59;;;;;;;0.63;0.63;;;;;;;24.25;52.94;99639.63;5114233;28;20089;-59
2023/07/23 07:56:29;;;;;;;0.80;0.77;;;;;;;24.40;52.86;99638.75;5114928;28;20457;-59
2023/07/23 07:58:58;;;;;;;1.85;1.25;;;;;;;24.63;52.91;99639.09;5114338;28;20047;-59
2023/07/23 08:01:28;;;;;;;0.55;0.55;;;;;;;24.84;52.39;99639.59;5114296;28;20032;-59
2023/07/23 08:03:58;;;;;;;1.75;1.10;;;;;;;25.02;51.95;99638.53;5114336;28;20043;-59
2023/07/23 08:06:27;;;;;;;1.05;0.68;;;;;;;25.10;51.65;99631.03;5114458;28;20075;-59
2023/07/23 08:09:01;;;;;;;0.50;0.50;;;;;;;25.21;51.57;99633.84;5113918;28;20114;-59
2023/07/23 08:11:31;;;;;;;0.80;0.80;;;;;;;25.40;51.70;99637.94;5114366;28;20073;-59
2023/07/23 08:14:02;;;;;;;0.80;0.60;;;;;;;25.45;51.01;99635.91;5114372;28;20036;-61
2023/07/23 08:16:31;;;;;;;3.47;1.40;;;;;;;25.37;50.98;99643.34;5114127;28;20135;-61
2023/07/23 08:19:00;;;;;;;0.38;0.38;;;;;;;25.41;50.99;99634.41;5114118;28;20040;-61
2023/07/23 08:21:30;;;;;;;0.50;0.50;;;;;;;25.45;51.49;99635.91;5114218;28;20040;-61
2023/07/23 08:24:00;;;;;;;0.65;0.65;;;;;;;25.53;51.53;99634.47;5114098;28;20047;-60
2023/07/23 08:26:33;;;;;;;0.50;0.50;;;;;;;25.69;51.24;99623.91;5114089;28;20079;-60
2023/07/23 08:29:06;;;;;;;1.27;0.88;;;;;;;25.73;50.86;99625.38;5113853;28;20064;-61
2023/07/23 08:31:35;;;;;;;0.85;0.82;;;;;;;25.81;50.85;99618.75;5114132;28;20138;-60
2023/07/23 08:34:04;;;;;;;0.45;0.45;;;;;;;25.91;50.52;99624.22;5114142;28;20039;-61
2023/07/23 08:36:33;;;;;;;0.55;0.55;;;;;;;26.02;49.56;99621.75;5113742;28;20032;-60
2023/07/23 08:39:05;;;;;;;0.80;0.60;;;;;;;25.85;48.46;99617.59;5113794;28;20042;-60
2023/07/23 08:41:37;;;;;;;0.50;0.50;;;;;;;25.99;48.75;99621.13;5113633;28;20529;-60
2023/07/23 08:44:38;;;;;;;0.50;0.50;;;;;;;26.15;48.98;99612.19;5113759;28;20071;-60
2023/07/23 08:47:12;;;;;;;0.77;0.77;;;;;;;26.35;48.80;99616.94;5080555;28;20071;-60
2023/07/23 08:49:42;;;;;;;0.45;0.43;;;;;;;26.41;48.77;99608.69;5102278;28;20085;-61
2023/07/23 08:52:12;;;;;;;1.05;0.88;;;;;;;26.50;48.75;99613.31;5093354;28;20051;-61
2023/07/23 08:54:43;;;;;;;3.03;0.77;;;;;;;26.75;48.10;99616.91;5093259;28;20050;-61
2023/07/23 08:57:12;;;;;;;0.60;0.60;;;;;;;26.82;47.71;99612.94;5093662;28;20044;-61
2023/07/23 08:59:42;;;;;;;0.60;0.60;;;;;;;26.89;47.13;99614.19;5093107;28;20056;-61
2023/07/23 09:02:12;;;;;;;0.77;0.60;;;;;;;27.15;47.34;99616.69;5093300;28;20044;-61
2023/07/23 09:04:41;;;;;;;0.73;0.57;;;;;;;27.39;46.60;99624.66;5093081;28;20043;-61
2023/07/23 09:07:12;;;;;;;0.52;0.52;;;;;;;27.48;46.20;99616.13;5093576;28;20044;-61
2023/07/23 09:09:42;;;;;;;1.13;1.02;;;;;;;27.39;45.39;99618.56;5092363;28;20062;-61
2023/07/23 09:12:10;;;;;;;0.95;0.88;;;;;;;27.47;45.59;99609.22;5093676;28;20428;-61
2023/07/23 09:14:43;;;;;;;0.50;0.50;;;;;;;27.68;44.93;99612.94;5093561;28;20557;-61
2023/07/23 09:17:19;;;;;;;2.08;1.00;;;;;;;27.76;44.21;99613.19;5093224;28;20101;-61
2023/07/23 09:19:49;;;;;;;0.50;0.50;;;;;;;27.80;43.84;99603.34;5093753;28;20521;-61
2023/07/23 09:22:18;;;;;;;0.80;0.80;;;;;;;27.84;43.70;99605.63;5097290;28;20436;-61
2023/07/23 09:24:48;;;;;;;;;;;;;;;27.88;43.55;99609.69;5097254;28;20048;-60
2023/07/23 09:27:18;;;;;;;0.57;0.57;;;;;;;27.93;43.79;99598.84;5097231;28;19920;-61
2023/07/23 09:29:47;;;;;;;0.80;0.80;;;;;;;28.07;43.88;99600.50;5097149;28;20114;-61
2023/07/23 09:32:25;;;;;;;0.55;0.55;;;;;;;28.21;43.17;99601.16;5097296;28;20047;-61
2023/07/23 09:34:56;;;;;;;0.75;0.75;;;;;;;28.26;41.97;99603.44;5096018;28;20051;-60
2023/07/23 09:37:27;;;;;;;0.82;0.77;;;;;;;28.32;41.79;99600.34;5097013;28;20071;-61
2023/07/23 09:39:58;;;;;;;0.40;0.40;;;;;;;28.35;42.07;99600.13;5096811;28;20051;-61
2023/07/23 09:42:27;;;;;;;1.15;1.05;;;;;;;28.53;41.68;99606.59;5096501;28;20064;-61
2023/07/23 09:45:01;;;;;;;0.57;0.57;;;;;;;28.56;40.38;99606.38;5096512;28;20055;-60
2023/07/23 09:47:31;;;;;;;1.10;0.98;;;;;;;28.54;39.83;99601.25;5096686;28;20044;-61
2023/07/23 09:50:00;;;;;;;0.40;0.40;;;;;;;28.63;40.34;99599.75;5096437;28;20036;-61
2023/07/23 09:52:35;;;;;;;0.65;0.65;;;;;;;28.54;39.61;99589.91;5097528;28;20044;-61
2023/07/23 09:55:09;;;;;;;0.55;0.55;;;;;;;28.51;39.51;99590.97;5096436;28;20058;-61
2023/07/23 09:57:40;;;;;;;0.60;0.60;;;;;;;28.51;39.75;99584.88;5096919;28;20482;-60
2023/07/23 10:00:11;;;;;;;0.85;0.63;;;;;;;28.51;39.56;99574.38;5095365;28;20461;-61
2023/07/23 10:02:43;;;;;;;0.40;0.40;;;;;;;28.65;39.20;99576.00;5096553;28;20389;-63
2023/07/23 10:05:15;;;;;;;0.88;0.88;;;;;;;28.74;38.42;99572.66;5096137;28;20490;-62
2023/07/23 10:07:46;;;;;;;0.40;0.40;;;;;;;28.68;37.67;99581.00;5096151;28;20048;-61
2023/07/23 10:10:17;;;;;;;0.60;0.60;;;;;;;28.61;37.62;99569.28;5096739;28;20143;-60
2023/07/23 10:12:48;;;;;;;0.50;0.50;;;;;;;28.72;37.67;99572.78;5096279;28;20509;-60
2023/07/23 10:15:17;;;;;;;0.28;0.28;;;;;;;28.92;37.55;99569.44;5096008;28;20105;-61
2023/07/23 10:17:47;;;;;;;;;;;;;;;29.12;37.26;99576.63;5096373;28;20135;-60
2023/07/23 10:20:19;;;;;;;1.05;0.70;;;;;;;29.07;37.24;99568.25;5094893;28;19970;-60
2023/07/23 10:22:49;;;;;;;0.68;0.65;;;;;;;29.15;36.98;99554.50;5096114;28;20051;-60
2023/07/23 10:25:30;;;;;;;0.90;0.90;;;;;;;29.29;36.12;99559.53;5096000;28;20131;-60
2023/07/23 10:28:07;;;;;;;0.95;0.75;;;;;;;29.46;34.55;99559.03;5096330;28;20558;-61
2023/07/23 10:30:37;;;;;;;0.70;0.70;;;;;;;29.54;34.92;99558.38;5095820;28;20138;-61
2023/07/23 10:33:31;;;;;;;0.75;0.75;;;;;;;29.58;34.48;99558.03;5094514;28;20090;-61
2023/07/23 10:36:04;;;;;;;0.50;0.50;;;;;;;29.65;34.13;99553.09;5093063;28;20066;-61
2023/07/23 10:38:35;;;;;;;0.52;0.52;;;;;;;29.66;34.31;99549.50;5095568;28;20059;-61
2023/07/23 10:41:07;;;;;;;0.40;0.40;;;;;;;29.53;33.85;99541.78;5095457;28;20048;-60
2023/07/23 10:43:39;;;;;;;0.55;0.55;;;;;;;29.47;34.48;99533.53;5095493;28;20452;-61
2023/07/23 10:46:10;;;;;;;0.50;0.50;;;;;;;29.34;34.45;99543.38;5095306;28;20036;-61
2023/07/23 10:48:46;;;;;;;0.73;0.73;;;;;;;29.42;34.75;99535.72;5095700;28;20109;-60
2023/07/23 10:51:17;;;;;;;1.13;0.98;;;;;;;29.42;34.40;99535.72;5095303;28;20048;-60
2023/07/23 10:54:01;;;;;;;0.60;0.40;;;;;;;29.58;33.77;99528.25;5095376;28;20131;-61
2023/07/23 10:56:34;;;;;;;0.40;0.40;;;;;;;29.68;32.69;99529.19;5095537;28;20047;-61
2023/07/23 10:59:06;;;;;;;0.60;0.60;;;;;;;29.68;33.16;99531.81;5095133;28;20048;-61
2023/07/23 11:01:37;;;;;;;0.40;0.40;;;;;;;29.69;33.67;99528.19;5095104;28;20040;-61
2023/07/23 11:04:10;;;;;;;0.63;0.63;;;;;;;29.70;34.24;99530.72;5095042;28;20048;-61
2023/07/23 11:06:41;;;;;;;0.68;0.68;;;;;;;29.67;33.86;99517.81;5095305;28;20058;-62
2023/07/23 11:09:11;;;;;;;0.45;0.45;;;;;;;29.72;33.63;99517.44;5095236;28;20497;-61
2023/07/23 11:11:42;;;;;;;0.63;0.50;;;;;;;29.73;34.01;99519.13;5095036;28;20063;-60
2023/07/23 11:14:19;;;;;;;0.60;0.60;;;;;;;29.69;34.24;99515.03;5094878;28;20097;-61
2023/07/23 11:16:50;;;;;;;0.40;0.40;;;;;;;29.76;33.98;99508.31;5095121;28;20048;-61
2023/07/23 11:19:20;;;;;;;0.80;0.80;;;;;;;29.86;33.91;99504.00;5094998;28;20047;-61
2023/07/23 11:21:50;;;;;;;0.60;0.60;;;;;;;29.77;33.31;99500.34;5094719;28;20040;-61
2023/07/23 11:24:21;;;;;;;0.50;0.50;;;;;;;29.89;33.22;99498.47;5095012;28;20135;-62
2023/07/23 11:26:52;;;;;;;0.40;0.40;;;;;;;29.99;32.92;99499.41;5094874;28;20406;-62
2023/07/23 11:29:25;;;;;;;0.60;0.60;;;;;;;30.12;33.05;99500.03;5095128;28;20124;-60
2023/07/23 11:31:55;;;;;;;0.43;0.43;;;;;;;30.05;32.67;99498.03;5093517;28;20509;-62
2023/07/23 11:34:25;;;;;;;0.95;0.65;;;;;;;29.96;32.95;99489.13;5094092;28;20136;-63
2023/07/23 11:36:55;;;;;;;1.33;0.90;;;;;;;30.06;32.76;99483.91;5093847;28;20048;-61
2023/07/23 11:39:25;;;;;;;1.05;0.80;;;;;;;30.11;32.97;99466.78;5094170;28;20401;-63
2023/07/23 11:41:55;;;;;;;;;;;;;;;30.32;32.81;99462.31;5094218;28;20062;-61
2023/07/23 11:44:24;;;;;;;1.02;0.70;;;;;;;30.32;32.19;99480.75;5093903;28;20384;-63
2023/07/23 11:47:01;;;;;;;0.60;0.60;;;;;;;30.26;32.19;99468.09;5094338;28;20067;-62